createdAt,value
2023-03-28T00:02:08.909Z,47.50
2023-03-28T00:04:39.117Z,47.15
2023-03-28T00:07:09.344Z,52.85
2023-03-28T00:09:40.223Z,50.83
2023-03-28T00:12:10.408Z,47.17
2023-03-28T00:14:40.569Z,38.45
2023-03-28T00:17:11.239Z,46.58
2023-03-28T00:19:42.537Z,51.92
2023-03-28T00:22:13.374Z,59.72
2023-03-28T00:24:45.667Z,48.97
2023-03-28T00:27:16.824Z,41.25
2023-03-28T00:29:47.054Z,45.22
2023-03-28T00:32:17.599Z,37.13
2023-03-28T00:34:47.851Z,38.58
2023-03-28T00:37:18.907Z,42.42
2023-03-28T00:39:52.334Z,33.65
2023-03-28T00:42:24.808Z,38.67
2023-03-28T00:44:59.183Z,37.25
2023-03-28T00:47:49.459Z,37.45
2023-03-28T00:50:32.295Z,35.00
2023-03-28T00:53:08.271Z,30.15
2023-03-28T00:55:51.036Z,34.90
2023-03-28T00:58:26.978Z,34.70
2023-03-28T01:00:58.180Z,30.30
2023-03-28T01:03:31.124Z,36.90
2023-03-28T01:06:03.104Z,33.72
2023-03-28T01:08:42.289Z,44.25
2023-03-28T01:11:14.635Z,43.78
2023-03-28T01:13:48.045Z,34.83
2023-03-28T01:16:19.689Z,32.67
2023-03-28T01:18:54.512Z,33.35
2023-03-28T01:21:35.371Z,34.75
2023-03-28T01:24:25.127Z,34.47
2023-03-28T01:27:14.485Z,31.60
2023-03-28T01:30:04.201Z,31.48
2023-03-28T01:33:08.293Z,34.13
2023-03-28T01:35:58.361Z,37.10
2023-03-28T01:38:37.764Z,33.40
2023-03-28T01:41:28.577Z,39.65
2023-03-28T01:44:08.843Z,35.80
2023-03-28T01:46:41.280Z,36.30
2023-03-28T01:49:16.950Z,35.28
2023-03-28T01:52:06.807Z,41.88
2023-03-28T01:54:57.144Z,35.78
2023-03-28T01:57:47.642Z,33.65
2023-03-28T02:00:23.741Z,34.70
2023-03-28T02:03:23.374Z,36.85
2023-03-28T02:06:14.226Z,33.42
2023-03-28T02:08:46.726Z,33.85
2023-03-28T02:11:36.386Z,31.90
2023-03-28T02:14:25.823Z,30.52
2023-03-28T02:17:17.539Z,32.65
2023-03-28T02:20:10.980Z,34.83
2023-03-28T02:23:03.080Z,36.17
2023-03-28T02:25:53.597Z,34.42
2023-03-28T02:28:41.493Z,34.72
2023-03-28T02:31:16.193Z,37.75
2023-03-28T02:33:50.161Z,33.78
2023-03-28T02:36:34.464Z,33.50
2023-03-28T02:39:21.686Z,38.60
2023-03-28T02:42:11.375Z,34.55
2023-03-28T02:45:01.201Z,34.40
2023-03-28T02:47:51.087Z,36.08
2023-03-28T02:50:42.525Z,36.08
2023-03-28T02:53:34.439Z,34.50
2023-03-28T02:56:24.531Z,34.00
2023-03-28T02:59:21.014Z,37.00
2023-03-28T03:01:52.165Z,34.53
2023-03-28T03:04:22.687Z,33.30
2023-03-28T03:06:53.295Z,33.08
2023-03-28T03:09:24.652Z,45.75
2023-03-28T03:11:55.210Z,41.30
2023-03-28T03:14:25.466Z,43.38
2023-03-28T03:17:10.573Z,35.20
2023-03-28T03:19:43.169Z,37.88
2023-03-28T03:22:20.725Z,34.05
2023-03-28T03:24:55.873Z,38.70
2023-03-28T03:27:27.581Z,35.88
2023-03-28T03:29:58.054Z,34.95
2023-03-28T03:32:48.144Z,38.28
2023-03-28T03:35:18.903Z,34.80
2023-03-28T03:37:49.923Z,32.90
2023-03-28T03:40:20.318Z,34.00
2023-03-28T03:42:51.001Z,39.13
2023-03-28T03:45:24.290Z,43.60
2023-03-28T03:47:54.944Z,37.25
2023-03-28T03:50:26.029Z,36.83
2023-03-28T03:52:58.124Z,33.45
2023-03-28T03:55:36.172Z,36.35
2023-03-28T03:58:06.943Z,36.72
2023-03-28T04:00:40.184Z,34.55
2023-03-28T04:03:28.226Z,31.58
2023-03-28T04:05:59.831Z,35.97
2023-03-28T04:08:30.492Z,32.17
2023-03-28T04:11:01.682Z,33.22
2023-03-28T04:13:38.676Z,32.40
2023-03-28T04:16:10.801Z,31.45
2023-03-28T04:18:52.208Z,33.55
2023-03-28T04:21:32.572Z,37.47
2023-03-28T04:24:06.270Z,30.77
2023-03-28T04:26:47.363Z,36.83
2023-03-28T04:29:18.132Z,32.22
2023-03-28T04:32:08.179Z,33.00
2023-03-28T04:34:47.422Z,34.13
2023-03-28T04:37:21.633Z,32.70
2023-03-28T04:39:57.294Z,40.05
2023-03-28T04:42:47.053Z,32.72
2023-03-28T04:45:21.873Z,35.17
2023-03-28T04:47:53.611Z,31.88
2023-03-28T04:50:25.748Z,34.17
2023-03-28T04:52:59.196Z,33.35
2023-03-28T04:55:30.107Z,36.25
2023-03-28T04:58:02.500Z,35.35
2023-03-28T05:00:32.767Z,33.38
2023-03-28T05:03:24.020Z,31.50
2023-03-28T05:06:03.413Z,34.78
2023-03-28T05:08:34.365Z,37.00
2023-03-28T05:11:04.888Z,34.65
2023-03-28T05:13:37.809Z,36.47
2023-03-28T05:16:16.882Z,35.50
2023-03-28T05:19:07.038Z,31.45
2023-03-28T05:21:57.513Z,33.40
2023-03-28T05:24:27.834Z,32.70
2023-03-28T05:26:58.856Z,29.40
2023-03-28T05:29:29.894Z,30.13
2023-03-28T05:32:00.503Z,34.38
2023-03-28T05:34:35.717Z,34.80
2023-03-28T05:37:07.371Z,34.22
2023-03-28T05:39:46.909Z,32.65
2023-03-28T05:42:17.505Z,30.35
2023-03-28T05:44:47.748Z,33.17
2023-03-28T05:47:38.335Z,32.20
2023-03-28T05:50:09.497Z,32.20
2023-03-28T05:52:40.047Z,35.45
2023-03-28T05:55:10.620Z,33.67
2023-03-28T05:57:42.113Z,33.70
2023-03-28T06:00:16.842Z,31.98
2023-03-28T06:02:56.249Z,29.95
2023-03-28T06:05:34.646Z,34.72
2023-03-28T06:08:08.224Z,30.33
2023-03-28T06:10:39.569Z,36.15
2023-03-28T06:13:21.105Z,35.13
2023-03-28T06:15:51.780Z,34.55
2023-03-28T06:18:29.156Z,30.92
2023-03-28T06:21:00.019Z,32.17
2023-03-28T06:23:31.230Z,31.73
2023-03-28T06:26:03.871Z,31.73
2023-03-28T06:28:43.400Z,32.58
2023-03-28T06:31:21.360Z,29.90
2023-03-28T06:33:52.282Z,31.70
2023-03-28T06:36:24.419Z,31.13
2023-03-28T06:38:56.423Z,31.38
2023-03-28T06:41:27.695Z,33.53
2023-03-28T06:43:57.905Z,30.83
2023-03-28T06:46:48.114Z,33.38
2023-03-28T06:49:18.998Z,35.85
2023-03-28T06:52:09.666Z,31.40
2023-03-28T06:54:40.421Z,45.92
2023-03-28T06:57:10.750Z,39.92
2023-03-28T06:59:41.954Z,44.08
2023-03-28T07:02:19.195Z,33.10
2023-03-28T07:04:51.023Z,67.47
2023-03-28T07:07:21.680Z,61.55
2023-03-28T07:09:53.484Z,30.23
2023-03-28T07:12:24.313Z,28.67
2023-03-28T07:14:54.301Z,31.80
2023-03-28T07:17:24.808Z,36.45
2023-03-28T07:19:56.147Z,29.35
2023-03-28T07:22:26.416Z,28.85
2023-03-28T07:24:57.785Z,64.90
2023-03-28T07:27:28.471Z,27.15
2023-03-28T07:29:59.153Z,32.88
2023-03-28T07:32:38.692Z,37.47
2023-03-28T07:35:11.006Z,30.58
2023-03-28T07:37:48.985Z,29.20
2023-03-28T07:40:32.396Z,25.40
2023-03-28T07:43:03.763Z,28.35
2023-03-28T07:45:34.140Z,43.45
2023-03-28T07:48:04.952Z,53.55
2023-03-28T07:50:35.493Z,93.35
2023-03-28T07:53:05.703Z,59.45
2023-03-28T07:58:14.046Z,28.30
2023-03-28T08:00:48.014Z,30.73
2023-03-28T08:03:38.975Z,26.42
2023-03-28T08:06:20.537Z,28.95
2023-03-28T08:09:00.342Z,26.20
2023-03-28T08:11:36.594Z,38.53
2023-03-28T08:14:11.245Z,29.38
2023-03-28T08:16:42.258Z,27.10
2023-03-28T08:19:12.870Z,27.40
2023-03-28T08:22:04.010Z,30.48
2023-03-28T08:24:41.964Z,56.33
2023-03-28T08:27:24.266Z,31.65
2023-03-28T08:30:00.308Z,60.05
2023-03-28T08:32:33.736Z,36.58
2023-03-28T08:35:04.508Z,61.95
2023-03-28T08:37:36.391Z,31.35
2023-03-28T08:40:11.888Z,30.30
2023-03-28T08:42:56.135Z,61.30
2023-03-28T08:45:46.163Z,63.25
2023-03-28T08:48:36.181Z,64.82
2023-03-28T08:51:21.288Z,27.00
2023-03-28T08:53:58.464Z,41.05
2023-03-28T08:56:30.708Z,37.30
2023-03-28T08:59:20.226Z,25.35
2023-03-28T09:01:51.148Z,29.80
2023-03-28T09:04:33.475Z,29.15
2023-03-28T09:07:23.996Z,28.63
2023-03-28T09:10:01.951Z,28.65
2023-03-28T09:13:03.744Z,36.80
2023-03-28T09:15:53.720Z,28.50
2023-03-28T09:18:38.454Z,30.27
2023-03-28T09:21:29.274Z,31.65
2023-03-28T09:24:18.840Z,65.97
2023-03-28T09:27:13.976Z,68.30
2023-03-28T09:29:47.261Z,29.63
2023-03-28T09:32:22.591Z,27.15
2023-03-28T09:34:54.625Z,29.15
2023-03-28T09:37:34.943Z,36.33
2023-03-28T09:40:10.432Z,28.77
2023-03-28T09:43:09.216Z,38.63
2023-03-28T09:45:53.857Z,33.72
2023-03-28T09:48:44.227Z,57.95
2023-03-28T09:51:22.361Z,27.95
2023-03-28T09:53:52.843Z,28.77
2023-03-28T09:56:43.482Z,29.13
2023-03-28T09:59:34.803Z,30.02
2023-03-28T10:02:28.464Z,32.67
2023-03-28T10:05:04.801Z,37.75
2023-03-28T10:07:49.158Z,35.20
2023-03-28T10:10:35.211Z,32.38
2023-03-28T10:13:13.480Z,27.83
2023-03-28T10:15:49.603Z,33.65
2023-03-28T10:18:41.267Z,30.58
2023-03-28T10:21:33.973Z,30.08
2023-03-28T10:24:11.294Z,31.95
2023-03-28T10:26:43.159Z,36.03
2023-03-28T10:29:16.502Z,34.35
2023-03-28T10:31:53.361Z,30.77
2023-03-28T10:34:36.385Z,57.90
2023-03-28T10:37:34.320Z,36.30
2023-03-28T10:40:31.224Z,38.90
2023-03-28T10:43:21.092Z,31.95
2023-03-28T10:45:57.431Z,43.30
2023-03-28T10:48:39.362Z,32.03
2023-03-28T10:51:18.510Z,44.00
2023-03-28T10:54:08.993Z,39.60
2023-03-28T10:56:51.934Z,32.25
2023-03-28T10:59:43.940Z,33.83
2023-03-28T11:02:27.327Z,38.50
2023-03-28T11:05:06.311Z,39.33
2023-03-28T11:07:43.403Z,34.47
2023-03-28T11:10:26.440Z,34.78
2023-03-28T11:13:24.658Z,36.83
2023-03-28T11:16:01.266Z,35.45
2023-03-28T11:18:52.161Z,34.28
2023-03-28T11:21:43.336Z,35.45
2023-03-28T11:24:21.846Z,35.92
2023-03-28T11:27:27.269Z,38.40
2023-03-28T11:30:28.573Z,42.13
2023-03-28T11:33:21.599Z,62.58
2023-03-28T11:36:10.510Z,49.03
2023-03-28T11:38:43.504Z,80.90
2023-03-28T11:41:17.019Z,80.32
2023-03-28T11:44:26.091Z,61.95
2023-03-28T11:47:00.010Z,43.70
2023-03-28T11:49:37.310Z,64.95
2023-03-28T11:52:23.180Z,53.53
2023-03-28T11:55:00.458Z,46.97
2023-03-28T11:57:41.142Z,48.15
2023-03-28T12:00:33.200Z,57.67
2023-03-28T12:03:19.246Z,49.65
2023-03-28T12:06:03.856Z,50.78
2023-03-28T12:08:55.935Z,53.42
2023-03-28T12:11:29.755Z,57.38
2023-03-28T12:14:24.605Z,50.30
2023-03-28T12:16:56.991Z,53.67
2023-03-28T12:19:45.524Z,50.10
2023-03-28T12:22:21.156Z,42.28
2023-03-28T12:25:01.131Z,54.20
2023-03-28T12:27:44.369Z,50.80
2023-03-28T12:30:39.243Z,56.50
2023-03-28T12:33:31.055Z,51.40
2023-03-28T12:36:15.064Z,48.85
2023-03-28T12:39:05.729Z,45.42
2023-03-28T12:41:43.179Z,44.85
2023-03-28T12:44:32.770Z,53.60
2023-03-28T12:47:11.850Z,43.30
2023-03-28T12:49:48.248Z,45.70
2023-03-28T12:52:24.127Z,43.75
2023-03-28T12:55:05.251Z,45.35
2023-03-28T12:57:46.483Z,39.05
2023-03-28T13:00:41.909Z,38.38
2023-03-28T13:03:40.589Z,39.00
2023-03-28T13:06:30.697Z,37.70
2023-03-28T13:09:20.637Z,56.10
2023-03-28T13:12:01.361Z,55.47
2023-03-28T13:14:42.433Z,42.60
2023-03-28T13:17:33.937Z,46.10
2023-03-28T13:20:23.766Z,42.60
2023-03-28T13:23:06.132Z,46.90
2023-03-28T13:25:37.816Z,43.30
2023-03-28T13:28:27.549Z,48.35
2023-03-28T13:31:09.054Z,55.78
2023-03-28T13:34:00.097Z,44.83
2023-03-28T13:36:32.702Z,42.90
2023-03-28T13:39:22.414Z,44.72
2023-03-28T13:41:57.400Z,42.30
2023-03-28T13:44:32.271Z,40.95
2023-03-28T13:47:04.127Z,38.53
2023-03-28T13:49:40.158Z,45.83
2023-03-28T13:52:17.525Z,94.97
2023-03-28T13:54:48.248Z,60.45
2023-03-28T13:57:19.687Z,51.42
2023-03-28T14:00:06.578Z,41.60
2023-03-28T14:02:53.512Z,50.50
2023-03-28T14:05:26.084Z,42.00
2023-03-28T14:07:59.088Z,45.05
2023-03-28T14:10:34.027Z,49.22
2023-03-28T14:13:09.725Z,42.40
2023-03-28T14:15:41.298Z,40.22
2023-03-28T14:18:20.313Z,42.78
2023-03-28T14:20:50.864Z,44.13
2023-03-28T14:23:31.447Z,43.17
2023-03-28T14:26:04.782Z,41.97
2023-03-28T14:28:35.656Z,43.65
2023-03-28T14:31:05.890Z,43.50
2023-03-28T14:33:38.795Z,41.80
2023-03-28T14:36:12.477Z,44.55
2023-03-28T14:38:42.966Z,39.45
2023-03-28T14:41:29.071Z,37.67
2023-03-28T14:44:00.451Z,40.05
2023-03-28T14:46:32.760Z,35.17
2023-03-28T14:49:05.399Z,40.65
2023-03-28T14:51:48.781Z,41.17
2023-03-28T14:54:24.726Z,36.30
2023-03-28T14:56:55.482Z,35.63
2023-03-28T14:59:27.028Z,40.40
2023-03-28T15:01:58.461Z,30.75
2023-03-28T15:04:30.058Z,35.47
2023-03-28T15:07:00.951Z,40.47
2023-03-28T15:09:37.711Z,34.47
2023-03-28T15:12:10.465Z,28.13
2023-03-28T15:14:44.092Z,39.35
2023-03-28T15:17:26.485Z,32.95
2023-03-28T15:20:01.478Z,39.55
2023-03-28T15:22:37.323Z,34.90
2023-03-28T15:25:08.692Z,33.13
2023-03-28T15:27:39.088Z,42.63
2023-03-28T15:30:15.392Z,94.70
2023-03-28T15:32:46.011Z,89.28
2023-03-28T15:35:39.288Z,67.05
2023-03-28T15:38:11.352Z,35.17
2023-03-28T15:40:43.508Z,77.45
2023-03-28T15:43:33.335Z,42.35
2023-03-28T15:46:08.506Z,24.70
2023-03-28T15:48:39.594Z,46.97
2023-03-28T15:51:16.508Z,39.58
2023-03-28T15:53:50.888Z,37.45
2023-03-28T15:56:28.823Z,36.60
2023-03-28T15:59:01.750Z,34.20
2023-03-28T16:01:33.233Z,35.38
2023-03-28T16:04:23.271Z,29.05
2023-03-28T16:07:13.595Z,29.55
2023-03-28T16:09:44.710Z,24.77
2023-03-28T16:12:16.055Z,31.58
2023-03-28T16:15:01.338Z,25.95
2023-03-28T16:17:51.217Z,22.67
2023-03-28T16:20:29.622Z,23.63
2023-03-28T16:23:05.840Z,23.00
2023-03-28T16:25:36.373Z,21.63
2023-03-28T16:28:06.617Z,22.38
2023-03-28T16:30:38.605Z,20.23
2023-03-28T16:33:08.938Z,20.83
2023-03-28T16:35:39.282Z,21.73
2023-03-28T16:38:09.581Z,19.80
2023-03-28T16:40:39.955Z,30.45
2023-03-28T16:43:10.507Z,27.08
2023-03-28T16:45:41.146Z,22.20
2023-03-28T16:48:11.330Z,20.40
2023-03-28T16:50:41.436Z,22.30
2023-03-28T16:53:11.559Z,19.88
2023-03-28T16:55:42.025Z,21.40
2023-03-28T16:58:12.592Z,23.23
2023-03-28T17:00:46.781Z,20.73
2023-03-28T17:03:18.652Z,19.58
2023-03-28T17:05:50.047Z,19.20
2023-03-28T17:08:20.179Z,21.38
2023-03-28T17:10:50.338Z,20.48
2023-03-28T17:13:20.520Z,21.63
2023-03-28T17:15:51.879Z,19.90
2023-03-28T17:18:24.042Z,18.42
2023-03-28T17:21:01.314Z,16.73
2023-03-28T17:23:32.098Z,19.00
2023-03-28T17:26:02.500Z,16.20
2023-03-28T17:28:32.816Z,14.52
2023-03-28T17:31:08.580Z,15.60
2023-03-28T17:33:39.073Z,15.20
2023-03-28T17:36:28.863Z,15.27
2023-03-28T17:39:00.372Z,14.27
2023-03-28T17:41:30.970Z,13.82
2023-03-28T17:44:04.253Z,14.60
2023-03-28T17:46:34.935Z,14.63
2023-03-28T17:49:05.080Z,15.00
2023-03-28T17:51:35.432Z,15.68
2023-03-28T17:54:09.828Z,20.70
2023-03-28T17:56:40.779Z,20.23
2023-03-28T17:59:11.024Z,20.75
2023-03-28T18:01:41.928Z,21.38
2023-03-28T18:04:12.814Z,21.77
2023-03-28T18:07:02.596Z,19.73
2023-03-28T18:09:46.468Z,18.70
2023-03-28T18:12:17.466Z,19.42
2023-03-28T18:14:48.201Z,20.50
2023-03-28T18:17:18.498Z,35.95
2023-03-28T18:19:48.701Z,20.48
2023-03-28T18:22:19.749Z,20.95
2023-03-28T18:24:49.929Z,21.55
2023-03-28T18:27:19.911Z,22.70
2023-03-28T18:29:50.879Z,22.90
2023-03-28T18:32:21.120Z,22.73
2023-03-28T18:34:51.737Z,22.42
2023-03-28T18:37:21.946Z,21.85
2023-03-28T18:39:52.127Z,22.15
2023-03-28T18:42:22.622Z,21.80
2023-03-28T18:44:52.834Z,21.13
2023-03-28T18:47:23.014Z,22.73
2023-03-28T18:49:53.188Z,19.70
2023-03-28T18:52:23.484Z,21.73
2023-03-28T18:54:53.614Z,19.02
2023-03-28T18:57:24.396Z,19.27
2023-03-28T18:59:57.120Z,19.38
2023-03-28T19:02:28.076Z,18.55
2023-03-28T19:04:58.485Z,17.88
2023-03-28T19:07:29.154Z,18.58
2023-03-28T19:10:00.557Z,18.90
2023-03-28T19:12:30.581Z,18.98
2023-03-28T19:15:00.771Z,20.27
2023-03-28T19:17:31.017Z,19.15
2023-03-28T19:20:01.420Z,20.20
2023-03-28T19:22:31.648Z,17.83
2023-03-28T19:25:01.837Z,21.20
2023-03-28T19:27:32.443Z,16.80
2023-03-28T19:30:02.614Z,18.13
2023-03-28T19:32:34.198Z,19.38
2023-03-28T19:35:04.446Z,19.45
2023-03-28T19:37:34.891Z,20.13
2023-03-28T19:40:10.263Z,18.33
2023-03-28T19:42:43.560Z,18.58
2023-03-28T19:45:17.332Z,20.27
2023-03-28T19:47:47.673Z,19.77
2023-03-28T19:50:18.449Z,22.65
2023-03-28T19:52:48.615Z,20.40
2023-03-28T19:55:18.840Z,20.25
2023-03-28T19:57:48.995Z,22.67
2023-03-28T20:00:21.822Z,22.65
2023-03-28T20:02:52.451Z,23.48
2023-03-28T20:05:22.665Z,24.25
2023-03-28T20:07:52.797Z,24.00
2023-03-28T20:10:22.682Z,24.67
2023-03-28T20:12:52.954Z,26.95
2023-03-28T20:15:23.079Z,40.65
2023-03-28T20:17:53.037Z,33.47
2023-03-28T20:20:25.564Z,23.52
2023-03-28T20:22:56.379Z,24.60
2023-03-28T20:25:27.851Z,24.10
2023-03-28T20:28:00.987Z,23.05
2023-03-28T20:30:31.567Z,22.67
2023-03-28T20:33:02.414Z,23.38
2023-03-28T20:35:33.123Z,23.90
2023-03-28T20:38:03.495Z,24.92
2023-03-28T20:40:34.129Z,25.30
2023-03-28T20:43:04.252Z,24.98
2023-03-28T20:45:35.270Z,24.42
2023-03-28T20:48:09.023Z,24.80
2023-03-28T20:50:42.746Z,27.20
2023-03-28T20:53:12.894Z,26.63
2023-03-28T20:55:44.874Z,27.75
2023-03-28T20:58:15.049Z,30.25
2023-03-28T21:00:47.772Z,26.90
2023-03-28T21:03:19.997Z,26.50
2023-03-28T21:05:50.497Z,26.00
2023-03-28T21:08:22.230Z,25.10
2023-03-28T21:10:55.371Z,26.00
2023-03-28T21:13:25.674Z,27.08
2023-03-28T21:15:56.125Z,27.55
2023-03-28T21:18:26.495Z,26.30
2023-03-28T21:20:56.726Z,25.98
2023-03-28T21:23:26.890Z,27.02
2023-03-28T21:25:57.011Z,28.05
2023-03-28T21:28:27.728Z,29.75
2023-03-28T21:31:11.765Z,32.88
2023-03-28T21:33:45.091Z,32.00
2023-03-28T21:36:17.524Z,30.77
2023-03-28T21:38:48.603Z,35.10
2023-03-28T21:41:18.990Z,29.33
2023-03-28T21:43:49.755Z,29.90
2023-03-28T21:46:20.440Z,31.77
2023-03-28T21:48:51.457Z,29.88
2023-03-28T21:51:21.620Z,30.15
2023-03-28T21:53:51.742Z,30.70
2023-03-28T21:56:21.813Z,31.83
2023-03-28T21:58:51.929Z,31.08
2023-03-28T22:01:22.758Z,30.27
2023-03-28T22:03:53.008Z,31.27
2023-03-28T22:06:23.288Z,31.85
2023-03-28T22:08:53.981Z,30.40
2023-03-28T22:11:31.610Z,30.98
2023-03-28T22:14:03.782Z,31.08
2023-03-28T22:16:36.401Z,30.45
2023-03-28T22:19:07.692Z,31.98
2023-03-28T22:21:38.529Z,30.48
2023-03-28T22:24:14.348Z,33.28
2023-03-28T22:26:46.408Z,29.42
2023-03-28T22:29:18.579Z,32.38
2023-03-28T22:31:48.789Z,29.65
2023-03-28T22:34:19.309Z,33.35
2023-03-28T22:36:52.676Z,32.80
2023-03-28T22:39:23.755Z,32.35
2023-03-28T22:41:55.796Z,32.65
2023-03-28T22:44:28.214Z,31.10
2023-03-28T22:47:03.748Z,30.55
2023-03-28T22:49:35.715Z,28.90
2023-03-28T22:52:07.773Z,27.95
2023-03-28T22:54:38.703Z,28.88
2023-03-28T22:57:09.029Z,28.20
2023-03-28T22:59:40.160Z,28.33
2023-03-28T23:02:10.422Z,28.63
2023-03-28T23:04:41.619Z,31.60
2023-03-28T23:07:13.995Z,29.23
2023-03-28T23:09:44.722Z,27.80
2023-03-28T23:12:15.060Z,28.42
2023-03-28T23:14:45.254Z,29.10
2023-03-28T23:17:16.370Z,31.73
2023-03-28T23:19:48.816Z,29.02
2023-03-28T23:22:20.141Z,30.48
2023-03-28T23:24:53.805Z,31.75
2023-03-28T23:27:24.171Z,33.35
2023-03-28T23:29:54.573Z,31.52
2023-03-28T23:32:24.705Z,32.67
2023-03-28T23:34:55.242Z,31.52
2023-03-28T23:37:29.196Z,33.70
2023-03-28T23:39:59.415Z,32.08
2023-03-28T23:42:29.587Z,36.15
2023-03-28T23:44:59.721Z,31.08
2023-03-28T23:47:30.078Z,36.25
2023-03-28T23:50:00.227Z,32.88
2023-03-28T23:52:30.314Z,26.73
2023-03-28T23:55:01.012Z,30.58
2023-03-28T23:57:31.583Z,25.50
